createdAt,value
2023-04-30T00:04:42.124Z,2.69
2023-04-30T00:09:45.004Z,2.69
2023-04-30T00:14:47.907Z,2.65
2023-04-30T00:19:50.916Z,2.62
2023-04-30T00:24:53.677Z,2.64
2023-04-30T00:29:56.589Z,2.75
2023-04-30T00:35:01.355Z,2.85
2023-04-30T00:40:06.152Z,2.88
2023-04-30T00:45:09.273Z,2.86
2023-04-30T00:50:15.953Z,2.81
2023-04-30T00:55:20.157Z,2.75
2023-04-30T01:00:23.300Z,2.73
2023-04-30T01:05:26.390Z,2.73
2023-04-30T01:10:36.447Z,2.54
2023-04-30T01:16:03.260Z,2.30
2023-04-30T01:21:06.770Z,2.05
2023-04-30T01:26:09.783Z,2.08
2023-04-30T01:31:19.447Z,2.05
2023-04-30T01:36:43.420Z,2.00
2023-04-30T01:41:51.003Z,2.03
2023-04-30T01:47:14.693Z,2.05
2023-04-30T01:52:23.238Z,2.00
2023-04-30T01:57:32.372Z,2.18
2023-04-30T02:02:35.260Z,3.09
2023-04-30T02:07:41.885Z,5.35
2023-04-30T02:12:44.741Z,7.81
2023-04-30T02:17:47.622Z,10.14
2023-04-30T02:22:51.536Z,11.90
2023-04-30T02:27:54.210Z,14.13
2023-04-30T02:32:57.149Z,15.88
2023-04-30T02:37:59.868Z,17.51
2023-04-30T02:43:02.545Z,18.24
2023-04-30T02:48:05.973Z,18.52
2023-04-30T02:53:08.891Z,14.58
2023-04-30T02:58:11.596Z,12.40
2023-04-30T03:03:14.632Z,10.70
2023-04-30T03:08:17.321Z,9.99
2023-04-30T03:13:20.052Z,9.26
2023-04-30T03:18:22.861Z,8.63
2023-04-30T03:23:28.502Z,9.09
2023-04-30T03:28:31.364Z,9.19
2023-04-30T03:33:34.703Z,9.19
2023-04-30T03:38:37.423Z,10.01
2023-04-30T03:43:40.137Z,9.97
2023-04-30T03:48:43.405Z,9.25
2023-04-30T03:53:46.871Z,8.78
2023-04-30T03:58:49.731Z,8.62
2023-04-30T04:03:52.733Z,9.32
2023-04-30T04:08:55.480Z,9.22
2023-04-30T04:13:58.792Z,9.40
2023-04-30T04:19:01.472Z,9.76
2023-04-30T04:24:08.570Z,9.94
2023-04-30T04:29:12.357Z,10.01
2023-04-30T04:34:16.660Z,9.90
2023-04-30T04:39:19.377Z,10.29
2023-04-30T04:44:22.965Z,10.57
2023-04-30T04:49:25.787Z,10.48
2023-04-30T04:54:29.712Z,10.18
2023-04-30T04:59:32.500Z,10.53
2023-04-30T05:04:35.162Z,10.94
2023-04-30T05:09:38.129Z,11.07
2023-04-30T05:14:40.933Z,11.34
2023-04-30T05:19:43.814Z,11.21
2023-04-30T05:24:46.818Z,11.18
2023-04-30T05:29:49.483Z,11.32
2023-04-30T05:34:52.485Z,11.34
2023-04-30T05:39:55.337Z,11.15
2023-04-30T05:44:58.375Z,11.26
2023-04-30T05:50:01.037Z,11.73
2023-04-30T05:55:04.787Z,11.26
2023-04-30T06:00:08.099Z,11.21
2023-04-30T06:05:16.690Z,10.84
2023-04-30T06:10:19.484Z,11.32
2023-04-30T06:15:22.677Z,11.51
2023-04-30T06:20:27.320Z,11.13
2023-04-30T06:25:30.013Z,11.36
2023-04-30T06:30:32.778Z,11.70
2023-04-30T06:35:35.589Z,12.11
2023-04-30T06:40:38.506Z,12.25
2023-04-30T06:45:41.160Z,11.89
2023-04-30T06:50:46.532Z,12.07
2023-04-30T06:55:49.496Z,12.01
2023-04-30T07:00:52.467Z,12.05
2023-04-30T07:05:55.416Z,12.27
2023-04-30T07:10:58.582Z,12.18
2023-04-30T07:16:02.757Z,11.95
2023-04-30T07:21:05.424Z,11.72
2023-04-30T07:26:08.056Z,11.67
2023-04-30T07:31:10.755Z,12.25
2023-04-30T07:36:13.604Z,12.03
2023-04-30T07:41:16.244Z,11.71
2023-04-30T07:46:19.136Z,11.92
2023-04-30T07:51:21.900Z,12.28
2023-04-30T07:56:24.733Z,12.34
2023-04-30T08:01:27.445Z,12.59
2023-04-30T08:06:30.239Z,12.31
2023-04-30T08:11:33.054Z,12.37
2023-04-30T08:16:35.849Z,12.11
2023-04-30T08:21:39.153Z,11.87
2023-04-30T08:26:41.909Z,11.03
2023-04-30T08:31:44.677Z,10.78
2023-04-30T08:36:47.426Z,11.28
2023-04-30T08:41:56.186Z,11.48
2023-04-30T08:47:00.216Z,10.91
2023-04-30T08:52:02.876Z,11.15
2023-04-30T08:57:06.549Z,10.83
2023-04-30T09:02:10.621Z,11.22
2023-04-30T09:07:14.621Z,11.18
2023-04-30T09:12:19.769Z,10.92
2023-04-30T09:17:23.259Z,10.94
2023-04-30T09:22:26.131Z,11.03
2023-04-30T09:27:28.805Z,11.16
2023-04-30T09:32:31.822Z,11.44
2023-04-30T09:37:38.897Z,10.98
2023-04-30T09:42:58.989Z,10.55
2023-04-30T09:48:16.297Z,10.74
2023-04-30T09:53:20.857Z,10.84
2023-04-30T09:58:25.918Z,10.84
2023-04-30T10:03:31.227Z,10.76
2023-04-30T10:08:47.782Z,10.91
2023-04-30T10:14:03.203Z,10.78
2023-04-30T10:19:32.147Z,10.78
2023-04-30T10:24:35.115Z,10.64
2023-04-30T10:29:37.761Z,10.87
2023-04-30T10:35:00.130Z,10.73
2023-04-30T10:40:05.294Z,10.94
2023-04-30T10:45:11.231Z,10.74
2023-04-30T10:50:14.238Z,11.03
2023-04-30T10:55:17.770Z,11.27
2023-04-30T11:00:25.504Z,11.45
2023-04-30T11:05:39.076Z,11.42
2023-04-30T11:10:59.004Z,11.47
2023-04-30T11:16:04.695Z,11.81
2023-04-30T11:21:09.122Z,11.87
2023-04-30T11:26:11.980Z,11.66
2023-04-30T11:31:15.755Z,12.16
2023-04-30T11:36:19.905Z,11.71
2023-04-30T11:41:23.471Z,11.80
2023-04-30T11:46:27.685Z,11.90
2023-04-30T11:51:30.853Z,11.89
2023-04-30T11:56:39.514Z,11.94
2023-04-30T12:01:44.257Z,12.09
2023-04-30T12:06:47.114Z,12.61
2023-04-30T12:11:49.916Z,12.59
2023-04-30T12:16:53.248Z,12.35
2023-04-30T12:21:57.566Z,12.14
2023-04-30T12:27:02.029Z,12.12
2023-04-30T12:32:06.167Z,11.92
2023-04-30T12:37:08.825Z,11.39
2023-04-30T12:42:11.592Z,11.19
2023-04-30T12:47:14.773Z,11.21
2023-04-30T12:52:17.398Z,10.99
2023-04-30T12:57:20.128Z,10.99
2023-04-30T13:02:28.237Z,11.02
2023-04-30T13:07:40.050Z,11.06
2023-04-30T13:12:42.730Z,11.10
2023-04-30T13:17:45.834Z,11.05
2023-04-30T13:22:48.469Z,11.07
2023-04-30T13:27:51.139Z,11.27
2023-04-30T13:32:54.457Z,11.18
2023-04-30T13:38:00.007Z,11.18
2023-04-30T13:43:04.343Z,11.18
2023-04-30T13:48:07.218Z,11.12
2023-04-30T13:53:09.875Z,11.09
2023-04-30T13:58:13.406Z,10.95
2023-04-30T14:03:16.577Z,10.64
2023-04-30T14:08:21.886Z,10.39
2023-04-30T14:13:25.914Z,10.22
2023-04-30T14:18:28.586Z,9.92
2023-04-30T14:23:31.286Z,9.98
2023-04-30T14:28:34.030Z,10.00
2023-04-30T14:33:36.978Z,9.84
2023-04-30T14:38:39.570Z,9.96
2023-04-30T14:43:42.456Z,9.87
2023-04-30T14:48:45.389Z,9.86
2023-04-30T14:53:47.973Z,9.76
2023-04-30T14:58:50.769Z,9.60
2023-04-30T15:03:53.549Z,9.48
2023-04-30T15:08:56.372Z,9.50
2023-04-30T15:13:59.082Z,9.43
2023-04-30T15:19:01.752Z,9.17
2023-04-30T15:24:04.776Z,9.13
2023-04-30T15:29:08.895Z,9.14
2023-04-30T15:34:12.062Z,9.06
2023-04-30T15:39:14.942Z,9.20
2023-04-30T15:44:17.688Z,9.19
2023-04-30T15:49:23.278Z,9.00
2023-04-30T15:54:26.055Z,8.78
2023-04-30T15:59:28.700Z,8.26
2023-04-30T16:04:31.396Z,7.91
2023-04-30T16:09:34.814Z,7.67
2023-04-30T16:14:37.457Z,7.51
2023-04-30T16:19:41.128Z,7.39
2023-04-30T16:24:43.832Z,7.36
2023-04-30T16:29:46.585Z,7.23
2023-04-30T16:34:49.271Z,7.07
2023-04-30T16:39:51.978Z,6.97
2023-04-30T16:44:54.913Z,6.97
2023-04-30T16:49:58.655Z,6.99
2023-04-30T16:55:01.557Z,6.88
2023-04-30T17:00:06.666Z,6.92
2023-04-30T17:05:10.975Z,6.83
2023-04-30T17:10:14.785Z,6.62
2023-04-30T17:15:19.057Z,6.87
2023-04-30T17:20:21.868Z,6.91
2023-04-30T17:25:24.673Z,6.91
2023-04-30T17:30:28.818Z,6.98
2023-04-30T17:35:31.749Z,6.99
2023-04-30T17:40:34.825Z,6.94
2023-04-30T17:45:37.611Z,6.86
2023-04-30T17:50:40.746Z,6.84
2023-04-30T17:55:44.010Z,6.80
2023-04-30T18:00:46.917Z,6.63
2023-04-30T18:05:49.646Z,6.60
2023-04-30T18:10:53.758Z,6.09
2023-04-30T18:15:56.737Z,6.18
2023-04-30T18:21:00.669Z,6.08
2023-04-30T18:26:03.453Z,5.93
2023-04-30T18:31:06.264Z,5.88
2023-04-30T18:36:09.155Z,5.78
2023-04-30T18:41:12.153Z,5.79
2023-04-30T18:46:15.241Z,5.73
2023-04-30T18:51:23.182Z,5.73
2023-04-30T18:56:26.153Z,5.56
2023-04-30T19:01:28.838Z,5.62
2023-04-30T19:06:33.585Z,5.68
2023-04-30T19:11:36.652Z,5.57
2023-04-30T19:16:39.446Z,5.59
2023-04-30T19:21:42.354Z,5.60
2023-04-30T19:26:45.118Z,5.61
2023-04-30T19:31:59.619Z,5.55
2023-04-30T19:37:03.760Z,5.61
2023-04-30T19:42:10.421Z,5.62
2023-04-30T19:47:13.086Z,5.65
2023-04-30T19:52:16.241Z,5.66
2023-04-30T19:57:18.957Z,5.76
2023-04-30T20:02:21.670Z,5.69
2023-04-30T20:07:25.172Z,5.60
2023-04-30T20:12:28.337Z,5.50
2023-04-30T20:17:33.908Z,5.50
2023-04-30T20:22:36.724Z,5.48
2023-04-30T20:27:40.157Z,5.35
2023-04-30T20:32:43.077Z,5.26
2023-04-30T20:37:49.049Z,5.39
2023-04-30T20:42:52.522Z,5.41
2023-04-30T20:47:56.177Z,5.60
2023-04-30T20:52:59.038Z,5.43
2023-04-30T20:58:01.903Z,5.59
2023-04-30T21:03:04.758Z,5.45
2023-04-30T21:08:07.597Z,5.47
2023-04-30T21:13:11.510Z,5.62
2023-04-30T21:18:14.254Z,5.75
2023-04-30T21:23:17.019Z,5.70
2023-04-30T21:28:19.889Z,5.75
2023-04-30T21:33:22.483Z,5.81
2023-04-30T21:38:25.180Z,5.91
2023-04-30T21:43:27.938Z,5.86
2023-04-30T21:48:30.593Z,6.01
2023-04-30T21:53:33.390Z,6.05
2023-04-30T21:58:36.533Z,6.08
2023-04-30T22:03:39.613Z,6.17
2023-04-30T22:08:42.593Z,6.17
2023-04-30T22:13:45.693Z,6.28
2023-04-30T22:18:48.368Z,6.34
2023-04-30T22:23:51.128Z,6.36
2023-04-30T22:28:53.673Z,6.32
2023-04-30T22:33:56.371Z,6.38
2023-04-30T22:38:59.464Z,6.28
2023-04-30T22:44:02.241Z,6.21
2023-04-30T22:49:05.036Z,6.11
2023-04-30T22:54:09.582Z,6.13
2023-04-30T22:59:12.285Z,6.14
2023-04-30T23:04:15.147Z,6.14
2023-04-30T23:09:17.760Z,6.16
2023-04-30T23:14:20.410Z,6.20
2023-04-30T23:19:23.150Z,6.06
2023-04-30T23:24:26.398Z,6.25
2023-04-30T23:29:29.134Z,6.27
2023-04-30T23:34:32.003Z,6.25
2023-04-30T23:39:34.790Z,6.33
2023-04-30T23:44:37.451Z,6.17
2023-04-30T23:49:40.229Z,6.33
2023-04-30T23:54:42.792Z,6.27
2023-04-30T23:59:45.655Z,6.22
